createdAt,value
2022-12-23T00:00:30.405Z,2.70
2022-12-23T00:01:30.448Z,2.50
2022-12-23T00:02:30.641Z,2.80
2022-12-23T00:03:30.591Z,2.60
2022-12-23T00:04:30.368Z,2.60
2022-12-23T00:05:37.369Z,2.60
2022-12-23T00:06:31.330Z,2.40
2022-12-23T00:07:30.319Z,3.00
2022-12-23T00:08:30.301Z,3.10
2022-12-23T00:09:30.286Z,3.00
2022-12-23T00:10:30.267Z,2.80
2022-12-23T00:11:30.252Z,3.10
2022-12-23T00:12:30.258Z,3.20
2022-12-23T00:13:30.246Z,3.70
2022-12-23T00:14:30.230Z,2.90
2022-12-23T00:15:30.207Z,3.10
2022-12-23T00:16:30.250Z,2.90
2022-12-23T00:17:30.193Z,3.30
2022-12-23T00:18:30.157Z,3.20
2022-12-23T00:19:30.144Z,3.50
2022-12-23T00:20:30.160Z,3.30
2022-12-23T00:21:30.136Z,2.80
2022-12-23T00:22:30.139Z,3.20
2022-12-23T00:23:30.097Z,3.70
2022-12-23T00:24:30.083Z,3.60
2022-12-23T00:25:30.069Z,3.50
2022-12-23T00:26:30.060Z,3.90
2022-12-23T00:27:35.712Z,3.60
2022-12-23T00:28:30.040Z,3.70
2022-12-23T00:29:30.020Z,3.60
2022-12-23T00:30:30.003Z,3.90
2022-12-23T00:31:30.046Z,3.50
2022-12-23T00:32:30.002Z,4.40
2022-12-23T00:33:29.965Z,4.30
2022-12-23T00:34:29.955Z,3.80
2022-12-23T00:35:29.932Z,3.70
2022-12-23T00:36:30.150Z,4.30
2022-12-23T00:37:29.923Z,4.60
2022-12-23T00:38:29.900Z,4.50
2022-12-23T00:39:29.883Z,4.40
2022-12-23T00:40:29.879Z,4.80
2022-12-23T00:41:29.856Z,4.20
2022-12-23T00:42:29.866Z,4.50
2022-12-23T00:43:29.828Z,4.80
2022-12-23T00:44:29.812Z,4.90
2022-12-23T00:45:29.838Z,4.70
2022-12-23T00:46:29.895Z,4.90
2022-12-23T00:47:29.795Z,4.90
2022-12-23T00:48:29.760Z,4.90
2022-12-23T00:49:29.763Z,4.70
2022-12-23T00:50:29.743Z,5.50
2022-12-23T00:51:29.730Z,5.20
2022-12-23T00:52:29.763Z,5.30
2022-12-23T00:53:29.698Z,5.10
2022-12-23T00:54:29.683Z,5.20
2022-12-23T00:55:29.687Z,5.10
2022-12-23T00:56:29.654Z,5.70
2022-12-23T00:57:29.658Z,5.80
2022-12-23T00:58:29.631Z,5.30
2022-12-23T00:59:29.619Z,5.80
2022-12-23T01:00:29.609Z,6.00
2022-12-23T01:01:29.740Z,5.80
2022-12-23T01:02:29.743Z,5.80
2022-12-23T01:03:29.650Z,6.50
2022-12-23T01:04:29.546Z,6.30
2022-12-23T01:05:29.621Z,6.10
2022-12-23T01:06:29.518Z,6.60
2022-12-23T01:07:29.523Z,6.70
2022-12-23T01:08:29.523Z,7.30
2022-12-23T01:09:29.498Z,7.10
2022-12-23T01:10:29.467Z,7.80
2022-12-23T01:11:29.452Z,7.50
2022-12-23T01:12:29.457Z,6.90
2022-12-23T01:13:29.432Z,7.60
2022-12-23T01:14:29.419Z,7.60
2022-12-23T01:15:29.433Z,7.70
2022-12-23T01:16:29.424Z,7.20
2022-12-23T01:17:29.393Z,6.90
2022-12-23T01:18:29.359Z,7.30
2022-12-23T01:19:29.347Z,7.80
2022-12-23T01:20:29.341Z,8.70
2022-12-23T01:21:29.327Z,8.30
2022-12-23T01:22:29.313Z,8.00
2022-12-23T01:23:29.311Z,8.40
2022-12-23T01:24:29.310Z,8.60
2022-12-23T01:25:29.275Z,8.40
2022-12-23T01:26:29.256Z,7.90
2022-12-23T01:27:29.246Z,9.70
2022-12-23T01:28:29.260Z,8.70
2022-12-23T01:29:29.218Z,8.80
2022-12-23T01:30:29.204Z,9.80
2022-12-23T01:31:29.262Z,10.40
2022-12-23T01:32:29.184Z,11.30
2022-12-23T01:33:29.206Z,9.80
2022-12-23T01:34:36.078Z,11.00
2022-12-23T01:35:29.186Z,10.10
2022-12-23T01:36:29.134Z,9.50
2022-12-23T01:37:29.116Z,9.40
2022-12-23T01:38:29.122Z,10.20
2022-12-23T01:39:29.091Z,12.50
2022-12-23T01:40:29.102Z,10.20
2022-12-23T01:41:29.080Z,9.80
2022-12-23T01:42:29.046Z,9.50
2022-12-23T01:43:29.049Z,9.60
2022-12-23T01:44:29.023Z,11.60
2022-12-23T01:45:29.111Z,8.80
2022-12-23T01:46:29.092Z,11.30
2022-12-23T01:47:28.985Z,11.40
2022-12-23T01:48:29.000Z,12.00
2022-12-23T01:49:28.970Z,10.70
2022-12-23T01:50:28.956Z,10.00
2022-12-23T01:51:28.937Z,9.50
2022-12-23T01:52:28.931Z,12.00
2022-12-23T01:53:28.949Z,9.90
2022-12-23T01:54:28.891Z,10.20
2022-12-23T01:55:28.875Z,10.20
2022-12-23T01:56:28.883Z,9.60
2022-12-23T01:57:28.852Z,8.90
2022-12-23T01:58:28.852Z,9.20
2022-12-23T01:59:28.832Z,9.70
2022-12-23T02:00:28.813Z,9.70
2022-12-23T02:01:28.947Z,11.50
2022-12-23T02:02:28.876Z,11.40
2022-12-23T02:03:28.849Z,11.20
2022-12-23T02:04:28.765Z,11.30
2022-12-23T02:05:28.756Z,12.50
2022-12-23T02:06:28.735Z,13.30
2022-12-23T02:07:28.721Z,18.60
2022-12-23T02:08:28.733Z,17.40
2022-12-23T02:09:28.699Z,13.80
2022-12-23T02:10:28.676Z,17.40
2022-12-23T02:11:28.675Z,12.10
2022-12-23T02:12:28.723Z,15.10
2022-12-23T02:13:28.671Z,12.00
2022-12-23T02:14:28.625Z,15.30
2022-12-23T02:15:28.610Z,12.40
2022-12-23T02:16:28.658Z,11.30
2022-12-23T02:17:28.586Z,12.00
2022-12-23T02:18:28.568Z,11.20
2022-12-23T02:19:28.573Z,11.40
2022-12-23T02:20:28.543Z,19.50
2022-12-23T02:21:28.535Z,15.10
2022-12-23T02:22:28.518Z,12.40
2022-12-23T02:23:28.508Z,10.80
2022-12-23T02:24:28.505Z,14.20
2022-12-23T02:25:28.481Z,11.20
2022-12-23T02:26:28.465Z,12.80
2022-12-23T02:27:28.449Z,12.10
2022-12-23T02:28:28.462Z,12.20
2022-12-23T02:29:28.456Z,12.60
2022-12-23T02:30:28.430Z,10.30
2022-12-23T02:31:28.512Z,11.10
2022-12-23T02:32:28.378Z,11.30
2022-12-23T02:33:28.374Z,12.50
2022-12-23T02:34:28.372Z,12.30
2022-12-23T02:35:28.343Z,15.60
2022-12-23T02:36:28.329Z,12.80
2022-12-23T02:37:28.322Z,11.80
2022-12-23T02:38:28.301Z,10.40
2022-12-23T02:39:28.309Z,11.60
2022-12-23T02:40:28.279Z,10.80
2022-12-23T02:41:28.270Z,11.50
2022-12-23T02:42:28.247Z,11.10
2022-12-23T02:43:28.251Z,10.50
2022-12-23T02:44:28.269Z,10.10
2022-12-23T02:45:28.211Z,10.10
2022-12-23T02:46:28.261Z,9.40
2022-12-23T02:47:28.185Z,10.40
2022-12-23T02:48:28.174Z,9.50
2022-12-23T02:49:28.177Z,10.00
2022-12-23T02:50:28.152Z,8.80
2022-12-23T02:51:28.142Z,11.50
2022-12-23T02:52:28.116Z,9.40
2022-12-23T02:53:28.103Z,8.50
2022-12-23T02:54:28.104Z,8.10
2022-12-23T02:55:28.082Z,8.50
2022-12-23T02:56:28.065Z,8.90
2022-12-23T02:57:28.054Z,7.70
2022-12-23T02:58:28.040Z,7.40
2022-12-23T02:59:28.049Z,8.80
2022-12-23T03:00:28.028Z,8.40
2022-12-23T03:01:28.140Z,9.40
2022-12-23T03:02:28.163Z,8.20
2022-12-23T03:03:28.026Z,8.10
2022-12-23T03:04:27.974Z,8.60
2022-12-23T03:05:27.950Z,8.60
2022-12-23T03:06:27.936Z,9.30
2022-12-23T03:07:27.917Z,11.20
2022-12-23T03:08:27.919Z,10.10
2022-12-23T03:09:27.903Z,9.80
2022-12-23T03:10:27.873Z,10.90
2022-12-23T03:11:27.872Z,9.70
2022-12-23T03:12:27.894Z,8.80
2022-12-23T03:13:27.848Z,10.50
2022-12-23T03:14:27.834Z,10.00
2022-12-23T03:15:27.862Z,9.00
2022-12-23T03:16:27.918Z,11.20
2022-12-23T03:17:27.792Z,9.10
2022-12-23T03:18:27.771Z,9.00
2022-12-23T03:19:27.773Z,10.30
2022-12-23T03:20:27.759Z,8.40
2022-12-23T03:21:27.736Z,8.90
2022-12-23T03:22:27.730Z,8.70
2022-12-23T03:23:27.712Z,7.90
2022-12-23T03:24:27.709Z,8.90
2022-12-23T03:25:27.688Z,9.00
2022-12-23T03:26:27.675Z,9.00
2022-12-23T03:27:27.661Z,10.10
2022-12-23T03:28:27.641Z,9.40
2022-12-23T03:29:27.645Z,9.10
2022-12-23T03:30:27.616Z,9.30
2022-12-23T03:31:27.655Z,10.20
2022-12-23T03:32:27.616Z,10.70
2022-12-23T03:33:27.577Z,11.40
2022-12-23T03:34:27.575Z,10.30
2022-12-23T03:35:27.547Z,10.20
2022-12-23T03:36:27.535Z,10.10
2022-12-23T03:37:27.524Z,8.90
2022-12-23T03:38:27.504Z,7.90
2022-12-23T03:39:27.490Z,7.60
2022-12-23T03:40:27.505Z,7.00
2022-12-23T03:41:27.471Z,6.30
2022-12-23T03:42:27.465Z,6.50
2022-12-23T03:43:27.473Z,5.60
2022-12-23T03:44:27.426Z,5.70
2022-12-23T03:45:40.067Z,5.20
2022-12-23T03:46:28.455Z,4.70
2022-12-23T03:47:27.390Z,5.50
2022-12-23T03:48:27.390Z,5.40
2022-12-23T03:49:27.366Z,5.20
2022-12-23T03:50:27.365Z,5.30
2022-12-23T03:51:27.340Z,5.30
2022-12-23T03:52:27.326Z,4.90
2022-12-23T03:53:27.308Z,5.20
2022-12-23T03:54:27.300Z,5.00
2022-12-23T03:55:27.303Z,5.10
2022-12-23T03:56:27.273Z,5.20
2022-12-23T03:57:27.265Z,5.10
2022-12-23T03:58:27.265Z,5.60
2022-12-23T03:59:27.237Z,5.80
2022-12-23T04:00:27.236Z,6.40
2022-12-23T04:01:27.378Z,5.90
2022-12-23T04:02:27.367Z,6.00
2022-12-23T04:03:27.203Z,6.40
2022-12-23T04:04:27.181Z,6.10
2022-12-23T04:05:27.165Z,6.10
2022-12-23T04:06:27.135Z,6.30
2022-12-23T04:07:27.131Z,5.90
2022-12-23T04:08:27.112Z,5.80
2022-12-23T04:09:27.107Z,5.70
2022-12-23T04:10:27.093Z,5.60
2022-12-23T04:11:27.074Z,5.60
2022-12-23T04:12:27.059Z,5.30
2022-12-23T04:13:27.042Z,5.70
2022-12-23T04:14:27.037Z,5.70
2022-12-23T04:15:27.036Z,5.40
2022-12-23T04:16:27.057Z,5.80
2022-12-23T04:17:26.989Z,5.50
2022-12-23T04:18:26.982Z,5.20
2022-12-23T04:19:26.975Z,5.10
2022-12-23T04:20:26.999Z,4.50
2022-12-23T04:21:26.943Z,4.80
2022-12-23T04:22:26.919Z,4.60
2022-12-23T04:23:26.919Z,3.20
2022-12-23T04:24:26.892Z,3.70
2022-12-23T04:25:26.904Z,3.40
2022-12-23T04:26:26.866Z,3.50
2022-12-23T04:27:26.851Z,3.40
2022-12-23T04:28:26.883Z,3.50
2022-12-23T04:29:26.826Z,3.10
2022-12-23T04:30:33.530Z,3.40
2022-12-23T04:31:26.829Z,3.00
2022-12-23T04:32:26.782Z,2.30
2022-12-23T04:33:26.775Z,2.50
2022-12-23T04:34:26.761Z,2.50
2022-12-23T04:35:26.763Z,2.40
2022-12-23T04:36:26.755Z,2.30
2022-12-23T04:37:26.725Z,1.90
2022-12-23T04:38:26.709Z,1.90
2022-12-23T04:39:26.691Z,1.70
2022-12-23T04:40:26.710Z,1.50
2022-12-23T04:41:26.671Z,1.40
2022-12-23T04:42:26.656Z,1.40
2022-12-23T04:43:26.645Z,1.60
2022-12-23T04:44:26.632Z,1.80
2022-12-23T04:45:26.698Z,1.90
2022-12-23T04:46:26.706Z,1.80
2022-12-23T04:47:26.598Z,1.50
2022-12-23T04:48:26.581Z,1.60
2022-12-23T04:49:26.587Z,1.40
2022-12-23T04:50:26.577Z,1.50
2022-12-23T04:51:26.534Z,1.70
2022-12-23T04:52:26.546Z,1.60
2022-12-23T04:53:26.512Z,1.80
2022-12-23T04:54:26.496Z,1.70
2022-12-23T04:55:26.489Z,1.70
2022-12-23T04:56:26.492Z,1.50
2022-12-23T04:57:26.461Z,1.60
2022-12-23T04:58:26.444Z,1.60
2022-12-23T04:59:26.446Z,1.60
2022-12-23T05:00:26.421Z,1.90
2022-12-23T05:01:26.565Z,2.60
2022-12-23T05:02:26.510Z,2.80
2022-12-23T05:03:26.432Z,2.90
2022-12-23T05:04:26.393Z,2.50
2022-12-23T05:05:26.355Z,2.80
2022-12-23T05:06:26.353Z,2.60
2022-12-23T05:07:26.336Z,2.80
2022-12-23T05:08:26.480Z,3.10
2022-12-23T05:09:26.307Z,3.00
2022-12-23T05:10:26.289Z,3.30
2022-12-23T05:11:26.299Z,4.10
2022-12-23T05:12:26.276Z,4.40
2022-12-23T05:13:26.251Z,4.30
2022-12-23T05:14:26.248Z,4.60
2022-12-23T05:15:26.220Z,4.60
2022-12-23T05:16:26.280Z,4.50
2022-12-23T05:17:26.209Z,4.90
2022-12-23T05:18:26.188Z,5.00
2022-12-23T05:19:26.170Z,4.70
2022-12-23T05:20:26.164Z,4.50
2022-12-23T05:21:26.164Z,4.80
2022-12-23T05:22:26.147Z,4.90
2022-12-23T05:23:26.121Z,5.10
2022-12-23T05:24:26.153Z,5.50
2022-12-23T05:25:26.114Z,5.80
2022-12-23T05:26:26.105Z,5.60
2022-12-23T05:27:26.081Z,5.90
2022-12-23T05:28:26.068Z,6.30
2022-12-23T05:29:26.052Z,6.30
2022-12-23T05:30:26.046Z,6.50
2022-12-23T05:31:26.093Z,6.80
2022-12-23T05:32:26.010Z,7.80
2022-12-23T05:33:26.078Z,7.70
2022-12-23T05:34:25.982Z,8.10
2022-12-23T05:35:25.991Z,8.70
2022-12-23T05:36:25.972Z,8.10
2022-12-23T05:37:25.958Z,8.60
2022-12-23T05:38:25.940Z,8.80
2022-12-23T05:39:25.915Z,8.70
2022-12-23T05:40:28.698Z,8.90
2022-12-23T05:41:26.913Z,8.30
2022-12-23T05:42:25.893Z,9.10
2022-12-23T05:43:25.875Z,9.10
2022-12-23T05:44:25.854Z,9.30
2022-12-23T05:45:26.006Z,11.30
2022-12-23T05:46:26.972Z,12.60
2022-12-23T05:47:25.818Z,10.70
2022-12-23T05:48:25.801Z,30.40
2022-12-23T05:49:25.796Z,26.70
2022-12-23T05:50:25.781Z,20.20
2022-12-23T05:51:25.793Z,14.70
2022-12-23T05:52:25.772Z,16.90
2022-12-23T05:53:25.738Z,14.30
2022-12-23T05:54:25.726Z,12.40
2022-12-23T05:55:25.717Z,16.60
2022-12-23T05:56:25.823Z,16.10
2022-12-23T05:57:25.695Z,12.20
2022-12-23T05:58:25.685Z,14.10
2022-12-23T05:59:30.734Z,14.50
2022-12-23T06:00:26.652Z,13.10
2022-12-23T06:01:25.670Z,12.70
2022-12-23T06:02:25.810Z,14.00
2022-12-23T06:03:25.997Z,12.70
2022-12-23T06:04:25.650Z,10.80
2022-12-23T06:05:25.586Z,12.10
2022-12-23T06:06:25.575Z,11.00
2022-12-23T06:07:25.586Z,11.70
2022-12-23T06:08:25.550Z,10.10
2022-12-23T06:09:25.541Z,10.00
2022-12-23T06:10:25.530Z,11.60
2022-12-23T06:11:25.513Z,9.50
2022-12-23T06:12:25.542Z,9.40
2022-12-23T06:13:25.502Z,9.10
2022-12-23T06:14:29.071Z,9.90
2022-12-23T06:15:25.473Z,11.90
2022-12-23T06:16:25.550Z,9.40
2022-12-23T06:17:25.449Z,8.80
2022-12-23T06:18:25.449Z,8.60
2022-12-23T06:19:25.409Z,10.40
2022-12-23T06:20:25.396Z,9.40
2022-12-23T06:21:25.394Z,9.80
2022-12-23T06:22:25.393Z,8.50
2022-12-23T06:23:25.379Z,7.90
2022-12-23T06:24:25.393Z,8.20
2022-12-23T06:25:25.333Z,9.50
2022-12-23T06:26:25.363Z,9.10
2022-12-23T06:27:25.348Z,8.40
2022-12-23T06:28:25.336Z,7.40
2022-12-23T06:29:25.291Z,7.50
2022-12-23T06:30:25.306Z,7.40
2022-12-23T06:31:25.322Z,7.70
2022-12-23T06:32:25.268Z,7.60
2022-12-23T06:33:25.241Z,8.30
2022-12-23T06:34:25.222Z,8.20
2022-12-23T06:35:25.215Z,7.20
2022-12-23T06:36:25.202Z,7.30
2022-12-23T06:37:25.202Z,6.00
2022-12-23T06:38:25.173Z,5.50
2022-12-23T06:39:25.161Z,5.70
2022-12-23T06:40:25.144Z,5.30
2022-12-23T06:41:25.129Z,6.00
2022-12-23T06:42:25.138Z,6.30
2022-12-23T06:43:25.111Z,6.90
2022-12-23T06:44:25.114Z,6.90
2022-12-23T06:45:25.095Z,6.90
2022-12-23T06:46:25.118Z,6.90
2022-12-23T06:47:25.065Z,7.10
2022-12-23T06:48:25.043Z,5.80
2022-12-23T06:49:25.032Z,6.40
2022-12-23T06:50:25.019Z,5.70
2022-12-23T06:51:25.013Z,6.20
2022-12-23T06:52:25.007Z,5.40
2022-12-23T06:53:24.985Z,5.50
2022-12-23T06:54:24.972Z,5.70
2022-12-23T06:55:24.950Z,5.10
2022-12-23T06:56:24.949Z,5.10
2022-12-23T06:57:24.943Z,5.40
2022-12-23T06:58:24.913Z,5.40
2022-12-23T06:59:24.912Z,5.40
2022-12-23T07:00:24.980Z,6.30
2022-12-23T07:01:24.973Z,6.30
2022-12-23T07:02:24.974Z,6.80
2022-12-23T07:03:24.947Z,7.20
2022-12-23T07:04:24.838Z,6.80
2022-12-23T07:05:24.842Z,7.30
2022-12-23T07:06:24.813Z,7.00
2022-12-23T07:07:24.797Z,7.60
2022-12-23T07:08:24.811Z,8.90
2022-12-23T07:09:24.774Z,11.00
2022-12-23T07:10:24.770Z,8.80
2022-12-23T07:11:24.754Z,6.20
2022-12-23T07:12:24.735Z,6.60
2022-12-23T07:13:24.734Z,5.50
2022-12-23T07:14:24.710Z,5.60
2022-12-23T07:15:24.695Z,5.30
2022-12-23T07:16:24.731Z,4.20
2022-12-23T07:17:24.678Z,5.40
2022-12-23T07:18:24.682Z,6.50
2022-12-23T07:19:24.643Z,5.20
2022-12-23T07:20:24.639Z,4.40
2022-12-23T07:21:29.092Z,6.10
2022-12-23T07:22:25.611Z,4.40
2022-12-23T07:23:24.627Z,5.50
2022-12-23T07:24:24.586Z,3.90
2022-12-23T07:25:24.575Z,3.80
2022-12-23T07:26:24.564Z,2.80
2022-12-23T07:27:24.544Z,3.30
2022-12-23T07:28:24.555Z,3.20
2022-12-23T07:29:24.521Z,3.30
2022-12-23T07:30:24.529Z,2.80
2022-12-23T07:31:24.531Z,2.60
2022-12-23T07:32:24.506Z,2.60
2022-12-23T07:33:24.486Z,2.50
2022-12-23T07:34:24.458Z,2.00
2022-12-23T07:35:24.443Z,2.60
2022-12-23T07:36:24.434Z,2.60
2022-12-23T07:37:24.419Z,2.30
2022-12-23T07:38:24.423Z,2.30
2022-12-23T07:39:24.393Z,2.30
2022-12-23T07:40:24.376Z,1.80
2022-12-23T07:41:24.368Z,2.00
2022-12-23T07:42:44.286Z,1.70
2022-12-23T07:43:25.364Z,1.80
2022-12-23T07:44:24.340Z,1.70
2022-12-23T07:45:24.336Z,1.40
2022-12-23T07:46:24.371Z,1.50
2022-12-23T07:47:24.283Z,1.40
2022-12-23T07:48:24.347Z,1.80
2022-12-23T07:49:24.264Z,1.40
2022-12-23T07:50:24.255Z,1.50
2022-12-23T07:51:24.238Z,1.40
2022-12-23T07:52:24.224Z,1.60
2022-12-23T07:53:24.222Z,1.40
2022-12-23T07:54:24.201Z,1.30
2022-12-23T07:55:24.189Z,1.40
2022-12-23T07:56:24.181Z,1.70
2022-12-23T07:57:24.163Z,1.50
2022-12-23T07:58:24.175Z,1.40
2022-12-23T07:59:24.134Z,1.60
2022-12-23T08:00:24.136Z,1.30
2022-12-23T08:01:24.169Z,1.50
2022-12-23T08:02:24.398Z,1.50
2022-12-23T08:03:24.203Z,1.60
2022-12-23T08:04:24.159Z,1.60
2022-12-23T08:05:24.179Z,1.90
2022-12-23T08:06:24.049Z,1.90
2022-12-23T08:07:24.031Z,1.90
2022-12-23T08:08:24.031Z,1.80
2022-12-23T08:09:24.057Z,1.30
2022-12-23T08:10:24.007Z,1.70
2022-12-23T08:11:23.977Z,1.80
2022-12-23T08:12:23.972Z,1.70
2022-12-23T08:13:23.955Z,1.70
2022-12-23T08:14:23.956Z,1.50
2022-12-23T08:15:23.927Z,1.40
2022-12-23T08:16:24.008Z,1.80
2022-12-23T08:17:24.061Z,1.50
2022-12-23T08:18:23.896Z,1.60
2022-12-23T08:19:23.895Z,2.00
2022-12-23T08:20:23.892Z,3.30
2022-12-23T08:21:23.854Z,2.80
2022-12-23T08:22:23.837Z,2.50
2022-12-23T08:23:25.097Z,2.80
2022-12-23T08:24:23.826Z,2.80
2022-12-23T08:25:23.793Z,3.00
2022-12-23T08:26:23.780Z,3.10
2022-12-23T08:27:23.765Z,4.70
2022-12-23T08:28:23.776Z,5.40
2022-12-23T08:29:23.764Z,6.30
2022-12-23T08:30:23.736Z,8.10
2022-12-23T08:31:23.859Z,8.60
2022-12-23T08:32:23.701Z,8.50
2022-12-23T08:33:23.693Z,7.90
2022-12-23T08:34:23.697Z,8.00
2022-12-23T08:35:23.669Z,8.00
2022-12-23T08:36:23.917Z,8.00
2022-12-23T08:37:23.639Z,8.40
2022-12-23T08:38:23.618Z,7.10
2022-12-23T08:39:23.640Z,7.10
2022-12-23T08:40:23.596Z,6.80
2022-12-23T08:41:23.582Z,6.90
2022-12-23T08:42:23.570Z,6.70
2022-12-23T08:43:23.549Z,7.30
2022-12-23T08:44:23.570Z,7.10
2022-12-23T08:45:23.532Z,7.20
2022-12-23T08:46:23.672Z,7.00
2022-12-23T08:47:23.521Z,8.20
2022-12-23T08:48:23.491Z,13.90
2022-12-23T08:49:23.493Z,14.00
2022-12-23T08:50:23.518Z,12.20
2022-12-23T08:51:23.453Z,13.00
2022-12-23T08:52:23.531Z,12.40
2022-12-23T08:53:23.424Z,11.90
2022-12-23T08:54:23.420Z,11.30
2022-12-23T08:55:23.395Z,10.40
2022-12-23T08:56:23.392Z,12.10
2022-12-23T08:57:23.369Z,12.70
2022-12-23T08:58:23.357Z,12.60
2022-12-23T08:59:23.369Z,14.50
2022-12-23T09:00:23.421Z,15.70
2022-12-23T09:01:23.414Z,13.80
2022-12-23T09:02:23.515Z,13.30
2022-12-23T09:03:23.406Z,14.00
2022-12-23T09:04:23.303Z,11.80
2022-12-23T09:05:23.266Z,13.70
2022-12-23T09:06:28.572Z,12.60
2022-12-23T09:07:24.244Z,13.40
2022-12-23T09:08:23.251Z,11.30
2022-12-23T09:09:23.241Z,13.30
2022-12-23T09:10:23.320Z,12.60
2022-12-23T09:11:23.184Z,12.00
2022-12-23T09:12:23.179Z,13.10
2022-12-23T09:13:32.806Z,13.10
2022-12-23T09:14:23.165Z,13.70
2022-12-23T09:15:23.136Z,15.50
2022-12-23T09:16:23.215Z,16.30
2022-12-23T09:17:23.104Z,15.30
2022-12-23T09:18:23.094Z,12.00
2022-12-23T09:19:23.104Z,9.80
2022-12-23T09:20:23.063Z,8.70
2022-12-23T09:21:23.052Z,8.90
2022-12-23T09:22:23.043Z,10.00
2022-12-23T09:23:23.026Z,6.00
2022-12-23T09:24:23.078Z,6.70
2022-12-23T09:25:23.007Z,6.10
2022-12-23T09:26:22.988Z,7.30
2022-12-23T09:27:22.974Z,6.90
2022-12-23T09:28:22.959Z,7.70
2022-12-23T09:29:22.965Z,8.10
2022-12-23T09:30:22.931Z,6.20
2022-12-23T09:31:23.130Z,6.30
2022-12-23T09:32:22.906Z,2.70
2022-12-23T09:33:22.892Z,3.60
2022-12-23T09:34:22.893Z,3.40
2022-12-23T09:35:22.868Z,3.00
2022-12-23T09:36:22.852Z,2.10
2022-12-23T09:37:22.841Z,1.80
2022-12-23T09:38:22.825Z,1.80
2022-12-23T09:39:22.832Z,1.90
2022-12-23T09:40:22.821Z,1.90
2022-12-23T09:41:22.798Z,1.80
2022-12-23T09:42:22.772Z,1.90
2022-12-23T09:43:22.761Z,1.70
2022-12-23T09:44:22.746Z,1.70
2022-12-23T09:45:22.751Z,1.80
2022-12-23T09:46:22.801Z,1.80
2022-12-23T09:47:22.713Z,1.80
2022-12-23T09:48:22.697Z,2.00
2022-12-23T09:49:22.685Z,2.30
2022-12-23T09:50:22.685Z,2.60
2022-12-23T09:51:22.653Z,2.70
2022-12-23T09:52:22.644Z,2.30
2022-12-23T09:53:22.641Z,2.00
2022-12-23T09:54:22.694Z,2.10
2022-12-23T09:55:22.623Z,2.20
2022-12-23T09:56:22.627Z,1.90
2022-12-23T09:57:22.584Z,1.90
2022-12-23T09:58:22.563Z,2.10
2022-12-23T09:59:22.562Z,2.30
2022-12-23T10:00:22.556Z,2.10
2022-12-23T10:01:22.556Z,2.20
2022-12-23T10:02:22.734Z,2.20
2022-12-23T10:03:22.655Z,2.20
2022-12-23T10:04:22.583Z,2.30
2022-12-23T10:05:22.505Z,2.30
2022-12-23T10:06:22.461Z,2.80
2022-12-23T10:07:22.464Z,2.60
2022-12-23T10:08:22.445Z,2.50
2022-12-23T10:09:22.422Z,2.60
2022-12-23T10:10:22.426Z,2.60
2022-12-23T10:11:22.399Z,2.70
2022-12-23T10:12:28.089Z,2.50
2022-12-23T10:13:23.371Z,2.80
2022-12-23T10:14:22.359Z,2.70
2022-12-23T10:15:22.368Z,2.90
2022-12-23T10:16:22.402Z,2.80
2022-12-23T10:17:22.321Z,2.70
2022-12-23T10:18:22.303Z,2.90
2022-12-23T10:19:22.295Z,2.90
2022-12-23T10:20:22.297Z,2.90
2022-12-23T10:21:22.273Z,2.80
2022-12-23T10:22:22.251Z,2.50
2022-12-23T10:23:22.237Z,2.50
2022-12-23T10:24:22.226Z,2.60
2022-12-23T10:25:22.231Z,2.70
2022-12-23T10:26:22.195Z,2.80
2022-12-23T10:27:22.190Z,2.60
2022-12-23T10:28:22.193Z,2.70
2022-12-23T10:29:22.162Z,2.60
2022-12-23T10:31:39.677Z,3.10
2022-12-23T10:32:23.257Z,3.10
2022-12-23T10:33:22.143Z,3.20
2022-12-23T10:34:22.098Z,3.40
2022-12-23T10:35:22.105Z,3.30
2022-12-23T10:36:22.139Z,3.40
2022-12-23T10:37:22.076Z,6.20
2022-12-23T10:38:22.045Z,4.10
2022-12-23T10:39:22.031Z,4.10
2022-12-23T10:40:22.051Z,3.60
2022-12-23T10:41:22.001Z,3.70
2022-12-23T10:42:21.988Z,3.80
2022-12-23T10:43:21.987Z,3.80
2022-12-23T10:44:21.988Z,3.90
2022-12-23T10:45:21.977Z,3.60
2022-12-23T10:46:22.031Z,3.70
2022-12-23T10:47:21.923Z,3.90
2022-12-23T10:48:21.912Z,3.70
2022-12-23T10:49:21.910Z,3.50
2022-12-23T10:50:21.901Z,3.50
2022-12-23T10:51:21.943Z,3.60
2022-12-23T10:52:21.862Z,3.60
2022-12-23T10:53:21.851Z,12.20
2022-12-23T10:54:21.833Z,6.20
2022-12-23T10:55:21.836Z,4.10
2022-12-23T10:56:21.807Z,3.90
2022-12-23T10:57:21.795Z,3.70
2022-12-23T10:58:21.776Z,3.80
2022-12-23T10:59:21.776Z,3.00
2022-12-23T11:00:21.923Z,3.50
2022-12-23T11:01:27.162Z,3.30
2022-12-23T11:02:22.982Z,2.90
2022-12-23T11:03:21.837Z,2.60
2022-12-23T11:04:21.700Z,3.40
2022-12-23T11:05:21.704Z,3.00
2022-12-23T11:06:21.687Z,3.50
2022-12-23T11:08:21.649Z,3.40
2022-12-23T11:09:21.651Z,3.10
2022-12-23T11:10:21.625Z,2.80
2022-12-23T11:11:21.625Z,2.60
2022-12-23T11:12:21.596Z,2.50
2022-12-23T11:13:21.582Z,2.80
2022-12-23T11:14:21.562Z,2.70
2022-12-23T11:15:21.560Z,2.80
2022-12-23T11:16:21.642Z,2.90
2022-12-23T11:17:21.535Z,2.60
2022-12-23T11:18:21.535Z,2.40
2022-12-23T11:19:21.499Z,2.70
2022-12-23T11:20:21.486Z,2.50
2022-12-23T11:21:21.497Z,2.40
2022-12-23T11:22:21.466Z,2.10
2022-12-23T11:23:21.448Z,2.30
2022-12-23T11:24:21.433Z,2.00
2022-12-23T11:25:21.421Z,2.60
2022-12-23T11:26:21.425Z,2.60
2022-12-23T11:27:21.398Z,2.70
2022-12-23T11:28:21.375Z,2.30
2022-12-23T11:29:21.365Z,2.40
2022-12-23T11:30:21.370Z,2.60
2022-12-23T11:31:21.423Z,2.50
2022-12-23T11:32:21.346Z,2.50
2022-12-23T11:33:21.322Z,2.50
2022-12-23T11:34:21.296Z,2.50
2022-12-23T11:35:21.356Z,2.60
2022-12-23T11:36:21.288Z,2.60
2022-12-23T11:37:21.292Z,2.80
2022-12-23T11:38:21.248Z,2.90
2022-12-23T11:39:21.234Z,3.00
2022-12-23T11:40:21.219Z,3.60
2022-12-23T11:41:21.237Z,4.10
2022-12-23T11:42:21.188Z,4.50
2022-12-23T11:43:21.185Z,4.50
2022-12-23T11:44:21.166Z,4.90
2022-12-23T11:45:21.151Z,4.70
2022-12-23T11:46:21.210Z,4.90
2022-12-23T11:47:21.126Z,4.90
2022-12-23T11:48:21.138Z,4.80
2022-12-23T11:49:21.123Z,5.20
2022-12-23T11:50:21.092Z,5.20
2022-12-23T11:51:21.098Z,5.20
2022-12-23T11:52:21.058Z,5.70
2022-12-23T11:53:21.047Z,4.70
2022-12-23T11:54:21.028Z,4.80
2022-12-23T11:55:21.019Z,6.50
2022-12-23T11:56:21.087Z,4.70
2022-12-23T11:57:21.015Z,4.50
2022-12-23T11:58:21.012Z,4.30
2022-12-23T11:59:20.963Z,4.30
2022-12-23T12:00:20.950Z,5.00
2022-12-23T12:01:20.936Z,9.40
2022-12-23T12:02:21.008Z,4.90
2022-12-23T12:03:20.945Z,4.10
2022-12-23T12:04:20.919Z,4.50
2022-12-23T12:05:20.884Z,7.10
2022-12-23T12:06:20.874Z,4.00
2022-12-23T12:07:20.881Z,3.60
2022-12-23T12:08:20.870Z,3.70
2022-12-23T12:09:20.840Z,3.40
2022-12-23T12:10:20.820Z,3.60
2022-12-23T12:11:20.807Z,3.80
2022-12-23T12:12:20.804Z,3.80
2022-12-23T12:13:20.979Z,3.80
2022-12-23T12:14:20.764Z,3.80
2022-12-23T12:15:20.752Z,3.80
2022-12-23T12:16:20.763Z,3.40
2022-12-23T12:17:20.735Z,3.50
2022-12-23T12:18:20.712Z,3.80
2022-12-23T12:19:20.713Z,3.90
2022-12-23T12:20:20.708Z,3.80
2022-12-23T12:21:20.676Z,3.80
2022-12-23T12:22:20.669Z,4.00
2022-12-23T12:23:20.647Z,4.00
2022-12-23T12:24:20.626Z,3.50
2022-12-23T12:25:20.627Z,4.60
2022-12-23T12:26:20.601Z,4.10
2022-12-23T12:27:20.616Z,3.40
2022-12-23T12:28:20.580Z,2.80
2022-12-23T12:29:20.577Z,2.90
2022-12-23T12:30:20.556Z,2.80
2022-12-23T12:31:20.634Z,2.50
2022-12-23T12:32:20.548Z,2.70
2022-12-23T12:33:20.517Z,2.90
2022-12-23T12:34:20.496Z,2.80
2022-12-23T12:35:20.481Z,2.60
2022-12-23T12:36:20.551Z,3.20
2022-12-23T12:37:20.475Z,4.90
2022-12-23T12:38:20.465Z,5.00
2022-12-23T12:39:20.434Z,6.60
2022-12-23T12:40:20.417Z,6.10
2022-12-23T12:41:20.405Z,20.60
2022-12-23T12:42:20.406Z,12.20
2022-12-23T12:43:20.378Z,15.30
2022-12-23T12:44:20.358Z,9.90
2022-12-23T12:45:20.348Z,14.80
2022-12-23T12:46:20.436Z,7.60
2022-12-23T12:48:20.310Z,6.90
2022-12-23T12:49:20.296Z,3.70
2022-12-23T12:50:20.296Z,2.80
2022-12-23T12:51:20.270Z,2.70
2022-12-23T12:52:20.289Z,2.90
2022-12-23T12:53:20.241Z,4.30
2022-12-23T12:54:20.225Z,3.20
2022-12-23T12:55:20.218Z,5.30
2022-12-23T12:56:20.218Z,4.40
2022-12-23T12:57:20.225Z,4.20
2022-12-23T12:58:20.174Z,4.40
2022-12-23T12:59:20.183Z,4.20
2022-12-23T13:00:20.155Z,4.20
2022-12-23T13:01:20.185Z,4.60
2022-12-23T13:02:20.227Z,4.20
2022-12-23T13:03:20.150Z,5.00
2022-12-23T13:04:20.113Z,4.00
2022-12-23T13:05:22.859Z,4.40
2022-12-23T13:06:20.067Z,5.20
2022-12-23T13:07:20.056Z,4.50
2022-12-23T13:08:20.078Z,7.70
2022-12-23T13:09:20.048Z,9.90
2022-12-23T13:10:20.019Z,11.80
2022-12-23T13:11:23.446Z,5.30
2022-12-23T13:12:19.992Z,4.40
2022-12-23T13:13:20.023Z,4.80
2022-12-23T13:14:19.958Z,4.00
2022-12-23T13:15:19.966Z,4.00
2022-12-23T13:16:20.001Z,3.70